Aviation Digital Data Service (ADDS)

Output produced by METARs form (1102 UTC 13 December 2017)
found at http://www.aviationweather.gov/adds/metars/
 
LSMA 131050Z VRB02KT CAVOK 01/M03 Q1016 RMK BLU
LSZB 131050Z VRB02KT 9999 FEW070 00/M03 Q1016 NOSIG
TAF LSZB 130825Z 1309/1318 VRB03KT CAVOK 
     BECMG 1314/1317 2500 RASN BKN009
       
LSMD 131050Z 21005KT 170V250 CAVOK 02/M03 Q1015 RMK BLU
LSME 131050Z AUTO VRB02KT 9999NDV NCD 02/M03 Q1016 RMK
LSGG 131050Z 24004KT 9999 FEW015 BKN150 01/M01 Q1018 NOSIG
TAF LSGG 130825Z 1309/1415 26008KT 9999 FEW010 TX04/1315Z TNM02/1406Z TX08/1415Z 
     PROB30 
     TEMPO 1315/1409 24015G25KT 
     PROB30 
     TEMPO 1315/1318 3000 RASN 
     PROB40 
     TEMPO 1315/1318 1500 SN VV004 
     PROB40 
     TEMPO 1318/1415 4500 RA
       
LSGC 131050Z 25011KT 220V300 CAVOK M01/M06 Q1012
TAF LSGC 130825Z 1309/1318 VRB03KT CAVOK 
     BECMG 1309/1312 23012KT 
     BECMG 1313/1315 1500 SN VV004
       
LSZA 131050Z 16003KT 110V230 CAVOK 06/M03 Q1017 NOSIG
TAF LSZA 130825Z 1309/1318 VRB03KT CAVOK
       
LSMM 131050Z VRB02KT CAVOK M05/M05 Q1017 RMK BLU
LSMP 131050Z 22009KT CAVOK 03/M03 Q1016 RMK BLU
LSZS 131050Z 00000KT CAVOK M11/M13 Q1014 RMK I
TAF LSZS 130825Z 1309/1318 VRB03KT CAVOK TXM04/1314Z 
     BECMG 1312/1314 9999 SCT100 
     PROB40 
     TEMPO 1312/1318 22010KT
       
LSGS 131050Z 10005KT 9999 FEW040 SCT200 M01/M06 Q1021
TAF LSGS 130825Z 1309/1318 VRB03KT 9999 FEW080
       
LSZR 131050Z 28005KT CAVOK 03/M02 Q1016 NOSIG RMK F
TAF LSZR 130825Z 1309/1318 19010KT CAVOK 
     BECMG 1315/1318 9999 SCT030 BKN050
       
LSZH 131050Z 19009KT 9999 FEW010 SCT250 02/M03 Q1015 NOSIG
TAF LSZH 130825Z 1309/1415 VRB03KT CAVOK TX04/1314Z TN03/1403Z TX06/1414Z 
     BECMG 1311/1314 22010KT 9999 SCT030 BKN050 
     PROB40 
     TEMPO 1314/1320 2500 RASN BKN009 
     PROB40 
     TEMPO 1320/1415 4500 RA BKN014 
     PROB40 
     TEMPO 1400/1415 24015G35KT